createdAt,value
2019-03-18T00:06:13.792Z,10.82
2019-03-18T00:26:25.505Z,11.47
2019-03-18T00:46:24.914Z,17.68
2019-03-18T01:06:34.355Z,20.16
2019-03-18T01:26:43.786Z,16.94
2019-03-18T01:46:53.203Z,18.49
2019-03-18T02:07:02.547Z,24.84
2019-03-18T02:27:12.047Z,16.19
2019-03-18T02:48:24.222Z,26.48
2019-03-18T03:08:23.633Z,22.92
2019-03-18T03:28:33.045Z,16.66
2019-03-18T03:48:42.428Z,18.26
2019-03-18T04:08:54.178Z,17.73
2019-03-18T04:28:53.493Z,16.22
2019-03-18T04:49:02.871Z,17.54
2019-03-18T05:09:12.362Z,18.52
2019-03-18T05:29:24.072Z,21.23
2019-03-18T05:49:23.439Z,20.44
2019-03-18T06:09:32.900Z,21.92
2019-03-18T06:29:42.221Z,22.55
2019-03-18T06:49:51.678Z,25.31
2019-03-18T07:10:01.097Z,37.30
2019-03-18T07:30:12.751Z,43.73
2019-03-18T07:50:12.152Z,23.84
2019-03-18T08:10:21.609Z,25.17
2019-03-18T08:30:30.943Z,27.05
2019-03-18T08:50:40.368Z,35.64
2019-03-18T09:10:52.057Z,29.65
2019-03-18T09:30:53.808Z,39.88
2019-03-18T09:50:55.515Z,33.35
2019-03-18T10:10:55.018Z,52.90
2019-03-18T10:31:04.416Z,35.15
2019-03-18T10:51:13.817Z,34.93
2019-03-18T11:11:23.210Z,28.95
2019-03-18T11:31:33.404Z,20.10
2019-03-18T11:51:32.831Z,19.14
2019-03-18T12:11:42.235Z,13.47
2019-03-18T12:31:56.901Z,13.89
2019-03-18T12:51:56.357Z,11.49
2019-03-18T13:12:05.752Z,10.44
2019-03-18T13:32:15.165Z,8.84
2019-03-18T13:52:24.623Z,6.22
2019-03-18T14:12:37.171Z,5.87
2019-03-18T14:32:35.166Z,7.92
2019-03-18T14:52:44.563Z,8.49
2019-03-18T15:12:56.099Z,4.28
2019-03-18T15:32:57.807Z,4.63
2019-03-18T15:52:59.620Z,5.98
2019-03-18T16:13:11.053Z,4.52
2019-03-18T16:33:00.717Z,4.45
2019-03-18T16:53:10.080Z,6.27
2019-03-18T17:13:19.699Z,7.35
2019-03-18T17:33:29.052Z,9.99
2019-03-18T17:53:41.102Z,9.10
2019-03-18T18:13:40.614Z,12.46
2019-03-18T18:33:50.176Z,15.24
2019-03-18T18:53:59.667Z,15.09
2019-03-18T19:14:07.836Z,11.49
2019-03-18T19:34:24.400Z,10.70
2019-03-18T19:54:24.534Z,10.88
2019-03-18T20:14:34.772Z,15.85
2019-03-18T20:34:34.297Z,10.97
2019-03-18T20:54:45.984Z,12.41
2019-03-18T21:14:48.531Z,16.54
2019-03-18T21:34:48.005Z,14.08
2019-03-18T21:54:57.859Z,14.26
2019-03-18T22:15:07.290Z,11.91
2019-03-18T22:35:19.103Z,13.54
2019-03-18T22:55:18.561Z,18.57
2019-03-18T23:15:27.986Z,22.37
2019-03-18T23:35:37.588Z,15.00
2019-03-18T23:55:47.225Z,14.92
